Time;durP1;ratioP1;P1;durP2;ratioP2;P2;SDS_P1;SDS_P2;PMS_P1;PMS_P2;Temp;Humidity;BMP_temperature;BMP_pressure;BME280_temperature;BME280_humidity;BME280_pressure;Samples;Min_cycle;Max_cycle;Signal;HPM_P1;HPM_P2
2023/12/27 00:00:07;;;;;;;9.73;5.03;;;3.50;99.90;;;;;;5014161;28;20661;-44
2023/12/27 00:02:32;;;;;;;11.87;4.70;;;3.50;99.90;;;;;;5012559;28;20298;-43
2023/12/27 00:04:58;;;;;;;15.73;5.63;;;3.50;99.90;;;;;;5014492;28;20220;-43
2023/12/27 00:07:25;;;;;;;14.10;6.37;;;3.50;99.90;;;;;;5014941;28;20210;-42
2023/12/27 00:09:54;;;;;;;17.50;5.70;;;3.40;99.90;;;;;;5014297;28;20203;-45
2023/12/27 00:12:22;;;;;;;12.67;5.00;;;3.40;99.90;;;;;;5014098;28;20302;-47
2023/12/27 00:14:51;;;;;;;13.23;4.83;;;3.40;99.90;;;;;;5014104;28;20220;-46
2023/12/27 00:17:17;;;;;;;17.27;5.37;;;3.40;99.90;;;;;;5013826;28;20188;-46
2023/12/27 00:19:42;;;;;;;11.93;4.77;;;3.40;99.90;;;;;;5013867;28;20207;-46
2023/12/27 00:22:08;;;;;;;13.73;5.27;;;3.30;99.90;;;;;;5012602;28;20226;-46
2023/12/27 00:24:37;;;;;;;10.77;4.63;;;3.30;99.90;;;;;;5014227;28;20193;-51
2023/12/27 00:27:03;;;;;;;8.50;4.03;;;3.30;99.90;;;;;;5013860;28;20179;-44
2023/12/27 00:29:30;;;;;;;12.63;4.50;;;3.30;99.90;;;;;;5013390;28;20209;-44
2023/12/27 00:31:56;;;;;;;11.43;3.77;;;3.20;99.90;;;;;;5013740;28;20207;-44
2023/12/27 00:34:23;;;;;;;11.77;4.40;;;3.20;99.90;;;;;;5015255;28;20192;-44
2023/12/27 00:36:52;;;;;;;7.97;3.80;;;3.20;99.90;;;;;;5017037;28;20544;-43
2023/12/27 00:39:23;;;;;;;9.53;3.70;;;3.10;99.90;;;;;;5017002;28;20535;-43
2023/12/27 00:41:49;;;;;;;13.97;4.57;;;3.10;99.90;;;;;;5011809;28;20205;-43
2023/12/27 00:44:15;;;;;;;9.70;4.40;;;3.10;99.90;;;;;;5016683;28;20636;-44
2023/12/27 00:46:41;;;;;;;8.83;3.80;;;3.10;99.90;;;;;;5017074;28;20550;-43
2023/12/27 00:49:07;;;;;;;11.93;4.43;;;3.00;99.90;;;;;;5016905;28;20604;-43
2023/12/27 00:51:36;;;;;;;8.07;3.23;;;2.90;99.90;;;;;;5016784;28;20285;-42
2023/12/27 00:54:03;;;;;;;13.03;4.10;;;2.90;99.90;;;;;;5016714;28;20613;-42
2023/12/27 00:56:32;;;;;;;9.20;4.07;;;2.90;99.90;;;;;;5015574;28;20187;-44
2023/12/27 00:58:58;;;;;;;14.23;4.33;;;2.90;99.90;;;;;;5016518;28;20186;-42
2023/12/27 01:01:24;;;;;;;14.63;4.60;;;2.90;99.90;;;;;;5016496;28;20269;-43
2023/12/27 01:03:50;;;;;;;11.53;4.33;;;2.90;99.90;;;;;;5015112;28;20206;-44
2023/12/27 01:06:20;;;;;;;18.77;5.17;;;2.90;99.90;;;;;;5016300;28;20272;-43
2023/12/27 01:08:49;;;;;;;11.73;4.63;;;3.00;99.90;;;;;;5016498;28;20191;-44
2023/12/27 01:12:10;;;;;;;12.90;4.23;;;3.00;99.90;;;;;;5016766;28;20209;-42
2023/12/27 01:14:39;;;;;;;12.57;4.30;;;3.10;99.90;;;;;;5016165;28;20296;-43
2023/12/27 01:17:08;;;;;;;12.30;4.30;;;3.10;99.90;;;;;;5016102;28;20265;-44
2023/12/27 01:19:34;;;;;;;10.90;4.43;;;3.10;99.90;;;;;;5016221;28;20570;-44
2023/12/27 01:22:02;;;;;;;16.13;4.97;;;3.20;99.90;;;;;;4982734;28;20205;-45
2023/12/27 01:24:30;;;;;;;10.60;3.67;;;3.30;99.90;;;;;;5016869;28;20681;-42
2023/12/27 01:26:56;;;;;;;10.80;4.10;;;3.30;99.90;;;;;;5016095;28;20183;-42
2023/12/27 01:29:25;;;;;;;11.47;4.07;;;3.30;99.90;;;;;;5014829;28;20292;-43
2023/12/27 01:31:51;;;;;;;7.27;3.83;;;3.30;99.90;;;;;;5016143;28;20258;-45
2023/12/27 01:37:45;;;;;;;9.50;4.13;;;3.20;99.90;;;;;;5016575;28;20170;-44
2023/12/27 01:40:11;;;;;;;12.83;4.20;;;3.20;99.90;;;;;;5016344;28;20247;-43
2023/12/27 01:42:39;;;;;;;14.63;4.90;;;3.20;99.90;;;;;;5016275;28;20237;-45
2023/12/27 01:45:07;;;;;;;12.30;4.00;;;3.20;99.90;;;;;;5015958;28;20638;-44
2023/12/27 01:47:33;;;;;;;9.20;4.30;;;3.20;99.90;;;;;;5016444;28;20190;-44
2023/12/27 01:50:00;;;;;;;15.13;4.17;;;3.10;99.90;;;;;;5016816;28;20269;-45
2023/12/27 01:52:27;;;;;;;11.13;3.27;;;3.10;99.90;;;;;;5015367;28;20205;-45
2023/12/27 01:54:55;;;;;;;11.37;4.03;;;3.10;99.90;;;;;;5016758;28;20176;-44
2023/12/27 01:57:21;;;;;;;8.40;4.33;;;3.10;99.90;;;;;;5016378;28;20179;-43
2023/12/27 01:59:52;;;;;;;18.73;4.37;;;3.00;99.90;;;;;;5015289;28;20564;-46
2023/12/27 02:02:22;;;;;;;10.77;4.20;;;3.00;99.90;;;;;;5017101;28;20183;-44
2023/12/27 02:04:54;;;;;;;15.67;4.53;;;2.90;99.90;;;;;;5016912;28;20199;-44
2023/12/27 02:08:15;;;;;;;11.43;4.23;;;2.90;99.90;;;;;;5018127;28;20236;-44
2023/12/27 02:10:57;;;;;;;11.73;4.53;;;2.90;99.90;;;;;;5018328;28;20305;-44
2023/12/27 02:13:23;;;;;;;14.10;3.87;;;2.80;99.90;;;;;;5019056;28;20201;-44
2023/12/27 02:15:51;;;;;;;13.77;4.97;;;2.80;99.90;;;;;;5018797;28;20182;-44
2023/12/27 02:18:22;;;;;;;11.80;4.20;;;2.80;99.90;;;;;;5016376;28;20201;-42
2023/12/27 02:20:49;;;;;;;12.40;4.10;;;2.80;99.90;;;;;;5019326;28;20222;-43
2023/12/27 02:23:23;;;;;;;13.07;4.37;;;2.80;99.90;;;;;;5016328;28;20533;-43
2023/12/27 02:25:52;;;;;;;10.60;4.10;;;2.80;99.90;;;;;;5013958;28;20173;-43
2023/12/27 02:31:41;;;;;;;12.50;3.70;;;2.80;99.90;;;;;;5014954;28;20250;-43
2023/12/27 02:34:08;;;;;;;11.53;4.37;;;2.80;99.90;;;;;;5015009;28;20182;-43
2023/12/27 02:36:37;;;;;;;8.83;3.70;;;2.80;99.90;;;;;;5014950;28;20671;-41
2023/12/27 02:42:25;;;;;;;11.90;4.23;;;2.70;99.90;;;;;;5014793;28;20190;-43
2023/12/27 02:44:52;;;;;;;8.70;3.70;;;2.70;99.90;;;;;;5013638;28;20182;-44
2023/12/27 02:47:18;;;;;;;8.73;3.57;;;2.70;99.90;;;;;;5015213;28;20239;-43
2023/12/27 02:49:44;;;;;;;11.33;3.47;;;2.70;99.90;;;;;;5014270;28;20210;-40
2023/12/27 02:52:11;;;;;;;16.97;4.20;;;2.70;99.90;;;;;;5015141;28;20288;-42
2023/12/27 02:54:40;;;;;;;10.83;4.13;;;2.70;99.90;;;;;;5014380;28;20650;-41
2023/12/27 02:57:05;;;;;;;15.67;4.57;;;2.70;99.90;;;;;;5013927;28;20188;-42
2023/12/27 02:59:31;;;;;;;14.00;4.83;;;2.70;99.90;;;;;;5015066;28;20198;-44
2023/12/27 03:05:26;;;;;;;13.10;3.83;;;2.70;99.90;;;;;;5014268;28;20209;-42
2023/12/27 03:07:53;;;;;;;8.33;3.50;;;2.60;99.90;;;;;;5013273;28;20557;-42
2023/12/27 03:10:19;;;;;;;9.43;3.33;;;2.70;99.90;;;;;;5014144;28;20214;-43
2023/12/27 03:12:44;;;;;;;13.53;3.77;;;2.60;99.90;;;;;;5014048;28;20300;-42
2023/12/27 03:15:10;;;;;;;10.50;3.17;;;2.60;99.90;;;;;;5013975;28;20189;-43
2023/12/27 03:17:37;;;;;;;11.53;3.13;;;2.60;99.90;;;;;;5014028;28;20177;-43
2023/12/27 03:20:09;;;;;;;14.23;3.57;;;2.60;99.90;;;;;;5012757;28;20225;-44
2023/12/27 03:22:35;;;;;;;10.20;3.33;;;2.70;99.90;;;;;;5012887;28;20265;-41
2023/12/27 03:25:04;;;;;;;10.47;3.03;;;2.70;99.90;;;;;;5013263;28;20186;-43
2023/12/27 03:27:30;;;;;;;12.13;3.70;;;2.70;99.90;;;;;;5014283;28;20630;-42
2023/12/27 03:29:56;;;;;;;7.27;3.03;;;2.80;99.90;;;;;;5012718;28;20280;-43
2023/12/27 03:32:25;;;;;;;12.07;3.37;;;2.80;99.90;;;;;;5012626;28;20238;-43
2023/12/27 03:35:34;;;;;;;16.77;3.53;;;2.80;99.90;;;;;;5026915;28;20228;-43
2023/12/27 03:38:00;;;;;;;16.63;3.37;;;2.90;99.90;;;;;;5028729;28;20245;-43
2023/12/27 03:40:32;;;;;;;12.73;3.53;;;3.00;99.90;;;;;;5028753;28;20209;-43
2023/12/27 03:43:00;;;;;;;14.57;3.43;;;3.10;99.90;;;;;;5025216;28;20325;-42
2023/12/27 03:45:27;;;;;;;10.67;2.67;;;3.10;99.90;;;;;;5015771;28;20205;-42
2023/12/27 03:47:56;;;;;;;7.83;3.17;;;3.20;99.90;;;;;;5015549;28;20181;-44
2023/12/27 03:50:31;;;;;;;6.53;2.57;;;3.30;99.90;;;;;;5014768;28;20240;-43
2023/12/27 03:52:56;;;;;;;12.00;3.20;;;3.30;99.90;;;;;;5014168;28;20236;-44
2023/12/27 03:55:25;;;;;;;13.30;3.30;;;3.40;99.90;;;;;;5014632;28;20178;-42
2023/12/27 03:57:51;;;;;;;10.93;3.60;;;3.40;99.90;;;;;;5013135;28;20186;-44
2023/12/27 04:00:18;;;;;;;11.33;3.17;;;3.50;99.90;;;;;;5014291;28;20210;-45
2023/12/27 04:02:43;;;;;;;11.60;3.23;;;3.50;99.90;;;;;;5014664;28;20196;-43
2023/12/27 04:05:09;;;;;;;17.40;3.67;;;3.50;99.90;;;;;;5013665;28;20657;-43
2023/12/27 04:07:35;;;;;;;9.60;3.40;;;3.50;99.90;;;;;;5015199;28;20206;-43
2023/12/27 04:10:04;;;;;;;8.87;3.97;;;3.60;99.90;;;;;;5018483;28;20576;-44
2023/12/27 04:12:30;;;;;;;12.27;3.67;;;3.60;99.90;;;;;;5018033;28;20243;-44
2023/12/27 04:14:55;;;;;;;11.40;3.40;;;3.60;99.90;;;;;;5018792;28;20630;-45
2023/12/27 04:17:21;;;;;;;9.13;2.93;;;3.70;99.90;;;;;;5018784;28;20210;-43
2023/12/27 04:19:47;;;;;;;9.20;3.30;;;3.70;99.90;;;;;;5018290;28;20206;-44
2023/12/27 04:22:15;;;;;;;13.90;3.60;;;3.70;99.90;;;;;;5019542;28;20185;-44
2023/12/27 04:24:42;;;;;;;12.07;3.90;;;3.70;99.90;;;;;;5018230;28;20200;-41
2023/12/27 04:27:08;;;;;;;8.57;3.27;;;3.80;99.90;;;;;;5020536;28;20244;-43
2023/12/27 04:33:06;;;;;;;8.77;3.60;;;3.90;99.90;;;;;;5019155;28;20223;-43
2023/12/27 04:35:31;;;;;;;12.50;3.67;;;3.90;99.90;;;;;;5020325;28;20216;-44
2023/12/27 04:37:57;;;;;;;15.60;3.73;;;3.90;99.90;;;;;;5017420;28;20685;-42
2023/12/27 04:40:23;;;;;;;12.03;3.67;;;3.90;99.90;;;;;;5017175;28;20201;-44
2023/12/27 04:42:54;;;;;;;16.67;3.83;;;4.00;99.90;;;;;;5017092;28;20182;-42
2023/12/27 04:45:20;;;;;;;12.83;3.63;;;4.00;99.90;;;;;;5017227;28;20228;-43
2023/12/27 04:47:46;;;;;;;10.93;3.67;;;4.00;99.90;;;;;;5017264;28;20604;-43
2023/12/27 04:50:12;;;;;;;11.73;3.63;;;4.10;99.90;;;;;;5017539;28;20197;-43
2023/12/27 04:52:37;;;;;;;13.20;3.83;;;4.10;99.90;;;;;;5016827;28;20267;-43
2023/12/27 04:55:07;;;;;;;11.87;3.37;;;4.10;99.90;;;;;;5016974;28;20175;-43
2023/12/27 04:57:41;;;;;;;13.20;4.50;;;4.10;99.90;;;;;;5017193;28;20602;-43
2023/12/27 05:03:41;;;;;;;16.63;4.33;;;4.20;99.90;;;;;;5036287;28;20701;-42
2023/12/27 05:06:08;;;;;;;9.43;4.20;;;4.30;99.90;;;;;;5036448;28;20187;-42
2023/12/27 05:08:34;;;;;;;7.50;3.50;;;4.30;99.90;;;;;;5034994;28;20185;-46
2023/12/27 05:11:00;;;;;;;6.57;3.50;;;4.40;99.90;;;;;;5036153;28;20203;-45
2023/12/27 05:13:29;;;;;;;9.80;3.50;;;4.40;99.90;;;;;;5036154;28;20244;-44
2023/12/27 05:15:58;;;;;;;14.50;3.70;;;4.50;99.90;;;;;;5036259;28;20252;-44
2023/12/27 05:18:39;;;;;;;10.90;4.20;;;4.50;99.90;;;;;;5035615;28;20188;-42
2023/12/27 05:24:32;;;;;;;11.70;3.70;;;4.60;99.90;;;;;;5036019;28;20220;-42
2023/12/27 05:27:00;;;;;;;11.27;3.97;;;4.60;99.90;;;;;;5035858;28;20248;-43
2023/12/27 05:29:26;;;;;;;12.80;4.30;;;4.70;99.90;;;;;;5035580;28;20288;-43
2023/12/27 05:31:52;;;;;;;9.40;3.77;;;4.70;99.90;;;;;;5035886;28;20295;-43
2023/12/27 05:34:17;;;;;;;8.07;4.07;;;4.70;99.90;;;;;;5036021;28;20260;-44
2023/12/27 05:36:43;;;;;;;15.03;3.07;;;4.80;99.90;;;;;;5035869;28;20176;-44
2023/12/27 05:39:13;;;;;;;6.70;3.53;;;4.80;99.90;;;;;;5036514;28;20177;-43
2023/12/27 05:41:42;;;;;;;8.17;3.63;;;4.80;99.90;;;;;;5035787;28;20630;-43
2023/12/27 05:44:08;;;;;;;6.90;2.33;;;4.90;99.90;;;;;;5035128;28;20186;-42
2023/12/27 05:46:37;;;;;;;6.33;3.60;;;4.90;99.90;;;;;;5035646;28;20694;-42
2023/12/27 05:49:21;;;;;;;10.63;3.70;;;4.90;99.90;;;;;;5034239;28;20560;-43
2023/12/27 05:51:57;;;;;;;6.80;3.50;;;5.00;99.90;;;;;;5035462;28;20570;-43
2023/12/27 05:54:26;;;;;;;7.90;3.10;;;5.00;99.90;;;;;;5034329;28;20195;-43
2023/12/27 05:56:53;;;;;;;8.53;4.23;;;5.00;99.90;;;;;;5035339;28;20245;-43
2023/12/27 05:59:19;;;;;;;9.67;4.07;;;5.10;99.90;;;;;;5035336;28;20186;-42
2023/12/27 06:02:25;;;;;;;5.03;2.80;;;5.10;99.90;;;;;;5035328;28;20175;-43
2023/12/27 06:04:51;;;;;;;9.27;4.27;;;5.20;99.90;;;;;;5035431;28;20189;-43
2023/12/27 06:07:19;;;;;;;13.23;4.43;;;5.20;99.90;;;;;;5035498;28;20189;-43
2023/12/27 06:09:47;;;;;;;6.23;3.60;;;5.20;99.90;;;;;;5034388;28;20202;-43
2023/12/27 06:12:14;;;;;;;12.73;4.57;;;5.30;99.90;;;;;;5034788;28;20207;-43
2023/12/27 06:14:43;;;;;;;7.90;4.13;;;5.30;99.90;;;;;;5035064;28;20175;-45
2023/12/27 06:17:09;;;;;;;10.17;4.67;;;5.30;99.90;;;;;;5034907;28;20660;-43
2023/12/27 06:19:38;;;;;;;9.87;4.33;;;5.40;99.90;;;;;;5034675;28;20276;-44
2023/12/27 06:22:05;;;;;;;12.83;4.37;;;5.40;99.90;;;;;;5034755;28;20184;-43
2023/12/27 06:24:31;;;;;;;7.47;4.37;;;5.40;99.90;;;;;;5034797;28;20183;-43
2023/12/27 06:26:57;;;;;;;9.17;4.20;;;5.40;99.90;;;;;;5034734;28;20522;-44
2023/12/27 06:29:23;;;;;;;8.90;4.60;;;5.50;99.90;;;;;;5036291;28;20227;-43
2023/12/27 06:31:49;;;;;;;11.67;4.93;;;5.50;99.90;;;;;;5038378;28;20205;-45
2023/12/27 06:34:17;;;;;;;5.97;3.30;;;5.60;99.90;;;;;;5038750;28;20177;-44
2023/12/27 06:36:47;;;;;;;11.80;3.80;;;5.50;99.90;;;;;;5038258;28;20181;-44
2023/12/27 06:39:42;;;;;;;13.77;4.23;;;5.50;99.90;;;;;;5042867;28;20262;-43
2023/12/27 06:42:08;;;;;;;12.27;4.83;;;5.60;99.90;;;;;;5033525;28;20251;-43
2023/12/27 06:44:36;;;;;;;5.37;3.07;;;5.60;99.90;;;;;;5034346;28;20192;-44
2023/12/27 06:47:03;;;;;;;6.53;3.93;;;5.60;99.90;;;;;;5034927;28;20619;-43
2023/12/27 06:49:34;;;;;;;10.97;3.87;;;5.60;99.90;;;;;;5034304;28;20207;-42
2023/12/27 06:52:03;;;;;;;9.70;3.77;;;5.70;99.90;;;;;;5033552;28;20570;-43
2023/12/27 06:54:35;;;;;;;11.47;5.07;;;5.70;99.90;;;;;;5034408;28;20214;-43
2023/12/27 06:57:01;;;;;;;10.63;4.17;;;5.70;99.90;;;;;;5034878;28;20182;-47
2023/12/27 06:59:26;;;;;;;9.03;4.47;;;5.70;99.90;;;;;;5034558;28;20199;-47
2023/12/27 07:01:55;;;;;;;12.03;4.60;;;5.70;99.90;;;;;;5034317;28;20182;-48
2023/12/27 07:04:21;;;;;;;12.50;4.83;;;5.70;99.90;;;;;;5034351;28;20263;-47
2023/12/27 07:06:46;;;;;;;9.73;3.67;;;5.80;99.90;;;;;;5034762;28;20671;-48
2023/12/27 07:09:12;;;;;;;9.07;4.60;;;5.80;99.90;;;;;;5034958;28;20236;-48
2023/12/27 07:15:03;;;;;;;8.97;4.20;;;5.80;99.90;;;;;;5034095;28;20205;-49
2023/12/27 07:17:32;;;;;;;9.63;4.27;;;5.80;99.90;;;;;;5027532;28;20283;-47
2023/12/27 07:20:02;;;;;;;7.70;3.37;;;5.90;99.90;;;;;;5032429;28;20212;-47
2023/12/27 07:23:03;;;;;;;11.23;3.97;;;5.90;99.90;;;;;;5034325;28;20234;-47
2023/12/27 07:25:31;;;;;;;7.80;4.00;;;5.90;99.90;;;;;;5033662;28;20177;-47
2023/12/27 07:28:04;;;;;;;12.10;4.10;;;5.90;99.90;;;;;;5033984;28;20215;-46
2023/12/27 07:30:33;;;;;;;11.40;4.03;;;6.00;99.90;;;;;;5032290;28;20663;-46
2023/12/27 07:32:59;;;;;;;8.80;3.30;;;6.00;99.90;;;;;;5033663;28;20258;-46
2023/12/27 07:35:25;;;;;;;9.13;3.30;;;6.00;99.90;;;;;;5033755;28;20175;-47
2023/12/27 07:37:51;;;;;;;7.60;3.70;;;6.00;99.90;;;;;;5033454;28;20274;-47
2023/12/27 07:40:17;;;;;;;11.17;3.27;;;6.00;99.90;;;;;;5033640;28;20228;-49
2023/12/27 07:42:48;;;;;;;12.20;4.23;;;6.00;99.90;;;;;;5033408;28;20271;-47
2023/12/27 07:45:14;;;;;;;10.97;4.00;;;6.00;99.90;;;;;;5034796;28;20181;-47
2023/12/27 07:47:43;;;;;;;9.67;3.67;;;6.10;99.90;;;;;;5045165;28;20199;-47
2023/12/27 07:50:13;;;;;;;15.10;4.57;;;6.10;99.90;;;;;;5046430;28;20299;-48
2023/12/27 07:52:52;;;;;;;9.87;4.23;;;6.10;99.90;;;;;;5043714;28;20680;-47
2023/12/27 07:55:18;;;;;;;8.57;3.13;;;6.10;99.90;;;;;;5038749;28;20187;-49
2023/12/27 07:57:45;;;;;;;9.07;3.80;;;6.20;99.90;;;;;;5033495;28;20263;-47
2023/12/27 08:00:17;;;;;;;8.80;4.03;;;6.20;99.90;;;;;;5033320;28;20212;-46
2023/12/27 08:02:45;;;;;;;6.40;3.30;;;6.20;99.90;;;;;;5034073;28;20245;-46
2023/12/27 08:05:11;;;;;;;11.17;3.03;;;6.20;99.90;;;;;;5031225;28;20230;-46
2023/12/27 08:07:38;;;;;;;7.40;3.50;;;6.20;99.90;;;;;;5032119;28;20215;-48
2023/12/27 08:10:06;;;;;;;8.77;3.87;;;6.30;99.90;;;;;;5027067;28;20285;-46
2023/12/27 08:12:40;;;;;;;10.13;3.77;;;6.30;99.90;;;;;;5033235;28;20750;-47
2023/12/27 08:15:08;;;;;;;6.93;3.50;;;6.30;99.90;;;;;;5033373;28;20190;-46
2023/12/27 08:17:34;;;;;;;6.40;4.00;;;6.30;99.90;;;;;;5031949;28;20208;-48
2023/12/27 08:20:05;;;;;;;7.00;3.43;;;6.40;99.90;;;;;;5033145;28;20215;-47
2023/12/27 08:22:34;;;;;;;7.30;3.80;;;6.30;99.90;;;;;;5032381;28;20248;-48
2023/12/27 08:25:05;;;;;;;10.13;3.67;;;6.40;99.90;;;;;;5033616;28;20181;-47
2023/12/27 08:27:32;;;;;;;5.40;3.73;;;6.40;99.90;;;;;;5033606;28;20176;-45
2023/12/27 08:30:04;;;;;;;5.27;3.80;;;6.40;99.90;;;;;;5033067;28;20204;-47
2023/12/27 08:32:32;;;;;;;8.33;3.60;;;6.50;99.90;;;;;;5032131;28;20212;-47
2023/12/27 08:35:01;;;;;;;6.50;3.20;;;6.50;99.90;;;;;;5033622;28;20185;-47
2023/12/27 08:37:28;;;;;;;5.23;3.03;;;6.50;99.90;;;;;;5032978;28;20204;-48
2023/12/27 08:39:54;;;;;;;6.30;3.67;;;6.50;99.90;;;;;;5033565;28;20287;-46
2023/12/27 08:42:23;;;;;;;8.47;3.60;;;6.50;99.90;;;;;;5033486;28;20601;-47
2023/12/27 08:44:52;;;;;;;4.00;2.83;;;6.50;99.90;;;;;;5033433;28;20195;-47
2023/12/27 08:47:19;;;;;;;7.40;3.03;;;6.60;99.90;;;;;;5033284;28;20215;-49
2023/12/27 08:49:48;;;;;;;6.10;3.63;;;6.60;99.90;;;;;;5033431;28;20208;-48
2023/12/27 08:52:14;;;;;;;8.40;3.80;;;6.60;99.90;;;;;;5033591;28;20201;-46
2023/12/27 08:54:40;;;;;;;4.47;2.90;;;6.60;99.90;;;;;;5033973;28;20263;-48
2023/12/27 08:57:08;;;;;;;6.23;3.57;;;6.60;99.90;;;;;;5037011;28;20271;-48
2023/12/27 08:59:34;;;;;;;7.10;3.10;;;6.70;99.90;;;;;;5037015;28;20211;-46
2023/12/27 09:02:00;;;;;;;5.67;2.77;;;6.70;99.90;;;;;;5037708;28;20185;-47
2023/12/27 09:04:26;;;;;;;3.70;2.53;;;6.80;99.90;;;;;;5038780;28;20208;-47
2023/12/27 09:06:53;;;;;;;3.73;2.83;;;6.70;99.90;;;;;;5038378;28;20641;-49
2023/12/27 09:09:22;;;;;;;5.13;3.03;;;6.80;99.90;;;;;;5036106;28;20199;-47
2023/12/27 09:11:57;;;;;;;3.53;2.80;;;6.90;99.90;;;;;;5036499;28;20543;-46
2023/12/27 09:14:26;;;;;;;5.67;3.50;;;6.90;99.90;;;;;;5036634;28;20567;-48
2023/12/27 09:16:54;;;;;;;6.10;3.40;;;6.90;99.90;;;;;;5036200;28;20660;-47
2023/12/27 09:19:20;;;;;;;4.40;3.17;;;7.00;99.90;;;;;;5036791;28;20524;-46
2023/12/27 09:21:49;;;;;;;5.07;2.93;;;7.00;99.90;;;;;;5036327;28;20188;-48
2023/12/27 09:24:20;;;;;;;6.33;3.23;;;7.10;99.90;;;;;;5036359;28;20263;-46
2023/12/27 09:26:50;;;;;;;7.67;3.03;;;7.10;99.90;;;;;;5036687;28;20627;-47
2023/12/27 09:29:16;;;;;;;6.07;2.83;;;7.20;99.90;;;;;;5036049;28;20193;-48
2023/12/27 09:31:48;;;;;;;4.83;3.10;;;7.20;99.90;;;;;;5036856;28;20181;-47
2023/12/27 09:34:13;;;;;;;5.23;3.10;;;7.20;99.90;;;;;;5034520;28;20176;-47
2023/12/27 09:36:42;;;;;;;6.10;3.00;;;7.30;99.90;;;;;;5036247;28;20563;-46
2023/12/27 09:39:13;;;;;;;4.40;2.70;;;7.30;99.90;;;;;;5018198;28;20251;-46
2023/12/27 09:41:42;;;;;;;2.73;2.37;;;7.30;99.90;;;;;;5023988;28;20287;-47
2023/12/27 09:44:13;;;;;;;4.53;2.80;;;7.30;99.90;;;;;;5035516;28;20682;-48
2023/12/27 09:46:39;;;;;;;4.03;2.80;;;7.40;99.90;;;;;;5035680;28;20169;-46
2023/12/27 09:49:15;;;;;;;3.80;2.47;;;7.40;99.90;;;;;;5035257;28;20238;-48
2023/12/27 09:55:04;;;;;;;3.70;2.30;;;7.50;99.90;;;;;;5035401;28;20172;-46
2023/12/27 09:57:37;;;;;;;5.10;1.77;;;7.50;99.90;;;;;;5034302;28;20556;-46
2023/12/27 10:00:05;;;;;;;3.83;1.77;;;7.60;99.90;;;;;;5034901;28;20748;-46
2023/12/27 10:02:34;;;;;;;3.63;1.43;;;7.60;99.90;;;;;;5035005;28;20726;-47
2023/12/27 10:05:23;;;;;;;4.33;1.70;;;7.70;99.90;;;;;;5033897;28;20676;-48
2023/12/27 10:07:53;;;;;;;3.03;1.37;;;7.80;99.90;;;;;;5034745;28;20254;-47
2023/12/27 10:10:21;;;;;;;1.40;1.10;;;7.80;99.90;;;;;;5034513;28;20274;-47
2023/12/27 10:12:51;;;;;;;2.63;1.60;;;7.80;99.90;;;;;;5033804;28;20204;-43
2023/12/27 10:15:17;;;;;;;4.17;2.13;;;7.90;99.90;;;;;;5034215;28;20189;-46
2023/12/27 10:17:42;;;;;;;4.17;2.00;;;8.00;99.90;;;;;;5035330;28;20196;-43
2023/12/27 10:20:11;;;;;;;2.50;1.93;;;8.00;99.90;;;;;;5035128;28;20704;-43
2023/12/27 10:22:37;;;;;;;6.33;2.17;;;8.00;99.90;;;;;;5033980;28;20181;-47
2023/12/27 10:25:08;;;;;;;6.47;2.00;;;8.00;99.90;;;;;;5034987;28;20514;-47
2023/12/27 10:27:35;;;;;;;3.93;1.80;;;8.00;99.90;;;;;;5033765;28;20169;-46
2023/12/27 10:30:03;;;;;;;2.60;1.50;;;8.00;99.90;;;;;;5034538;28;20561;-48
2023/12/27 10:32:52;;;;;;;1.60;1.33;;;8.10;99.90;;;;;;5033201;28;20677;-47
2023/12/27 10:35:34;;;;;;;8.83;1.30;;;8.10;99.90;;;;;;5033716;28;20193;-47
2023/12/27 10:38:05;;;;;;;1.80;1.23;;;8.20;99.90;;;;;;5033271;28;20203;-47
2023/12/27 10:40:34;;;;;;;5.23;1.13;;;8.20;99.90;;;;;;5032976;28;20288;-48
2023/12/27 10:43:13;;;;;;;3.10;1.20;;;8.30;99.90;;;;;;5034557;28;20197;-47
2023/12/27 10:45:43;;;;;;;2.00;1.00;;;8.40;99.90;;;;;;5034381;28;20196;-45
2023/12/27 10:48:13;;;;;;;2.37;1.07;;;8.40;99.90;;;;;;5034241;28;20529;-47
2023/12/27 10:50:44;;;;;;;2.60;0.67;;;8.50;99.90;;;;;;5034396;28;20293;-47
2023/12/27 10:53:18;;;;;;;2.57;0.80;;;8.60;99.90;;;;;;5033474;28;20630;-47
2023/12/27 10:56:03;;;;;;;1.10;0.80;;;8.60;99.90;;;;;;5034269;28;20560;-42
2023/12/27 10:58:31;;;;;;;8.47;1.13;;;8.60;99.90;;;;;;5034450;28;20572;-46
2023/12/27 11:00:59;;;;;;;1.70;0.90;;;8.70;99.90;;;;;;5034263;28;20212;-43
2023/12/27 11:03:28;;;;;;;3.23;0.80;;;8.70;99.90;;;;;;5034391;28;20173;-43
2023/12/27 11:06:21;;;;;;;2.90;1.00;;;8.80;99.90;;;;;;5034212;28;20256;-44
2023/12/27 11:12:11;;;;;;;1.10;0.80;;;8.80;99.90;;;;;;5033953;28;20228;-44
2023/12/27 11:14:37;;;;;;;0.77;0.70;;;8.80;99.90;;;;;;5033923;28;20180;-44
2023/12/27 11:17:05;;;;;;;3.03;0.90;;;8.80;99.90;;;;;;5032989;28;20180;-43
2023/12/27 11:19:33;;;;;;;1.60;0.90;;;8.80;99.90;;;;;;5033512;28;20219;-43
2023/12/27 11:22:01;;;;;;;1.50;0.83;;;8.90;99.90;;;;;;5031005;28;20193;-43
2023/12/27 11:24:32;;;;;;;4.97;1.10;;;8.90;99.90;;;;;;5033312;28;20196;-44
2023/12/27 11:27:00;;;;;;;2.10;1.13;;;9.00;99.90;;;;;;5027907;28;20204;-44
2023/12/27 11:29:31;;;;;;;2.20;0.90;;;9.00;99.90;;;;;;5022252;28;20197;-42
2023/12/27 11:32:00;;;;;;;2.57;1.20;;;9.10;99.90;;;;;;5039439;28;20741;-44
2023/12/27 11:34:26;;;;;;;2.03;1.20;;;9.00;99.90;;;;;;5040536;28;20715;-45
2023/12/27 11:36:56;;;;;;;4.27;1.30;;;9.10;99.90;;;;;;5040685;28;20176;-45
2023/12/27 11:39:27;;;;;;;2.80;1.10;;;9.10;99.90;;;;;;5037283;28;20232;-43
2023/12/27 11:41:52;;;;;;;3.87;1.50;;;9.10;99.90;;;;;;5035228;28;20181;-43
2023/12/27 11:44:47;;;;;;;6.23;1.50;;;9.10;99.90;;;;;;5034399;28;20261;-45
2023/12/27 11:54:07;;;;;;;5.93;1.87;;;9.10;99.90;;;;;;5014026;28;20177;-44
2023/12/27 11:56:36;;;;;;;6.63;1.63;;;9.20;99.90;;;;;;5013624;28;20251;-44
2023/12/27 11:59:06;;;;;;;10.30;1.80;;;9.20;99.90;;;;;;5013810;28;20253;-43
2023/12/27 12:01:35;;;;;;;6.17;1.77;;;9.30;99.90;;;;;;5014007;28;20544;-43
2023/12/27 12:04:10;;;;;;;5.17;1.97;;;9.30;99.90;;;;;;5014041;28;20205;-44
2023/12/27 12:06:54;;;;;;;7.13;2.30;;;9.30;99.90;;;;;;5018369;28;20205;-43
2023/12/27 12:12:49;;;;;;;7.40;1.80;;;9.40;99.90;;;;;;5016193;28;20258;-44
2023/12/27 12:15:19;;;;;;;3.23;1.70;;;9.60;99.90;;;;;;5024299;28;20166;-44
2023/12/27 12:17:48;;;;;;;4.97;1.80;;;9.60;99.90;;;;;;5012121;28;20233;-44
2023/12/27 12:21:01;;;;;;;6.93;2.07;;;9.70;99.90;;;;;;5012229;28;20213;-44
2023/12/27 12:23:35;;;;;;;10.13;1.90;;;9.70;99.90;;;;;;5015091;28;20242;-44
2023/12/27 12:26:03;;;;;;;8.33;2.00;;;9.70;99.90;;;;;;5021265;28;20209;-41
2023/12/27 12:28:29;;;;;;;8.23;2.50;;;9.80;99.90;;;;;;5034720;28;20651;-42
2023/12/27 12:30:59;;;;;;;7.13;1.70;;;9.90;99.90;;;;;;5036972;28;20761;-41
2023/12/27 12:33:25;;;;;;;6.13;1.63;;;9.90;99.90;;;;;;5036776;28;20292;-42
2023/12/27 12:35:53;;;;;;;5.80;2.00;;;9.90;99.90;;;;;;5036820;28;20304;-42
2023/12/27 12:38:19;;;;;;;3.53;1.73;;;10.00;99.90;;;;;;5036549;28;20588;-43
2023/12/27 12:40:50;;;;;;;4.43;1.40;;;10.00;99.90;;;;;;5036748;28;20673;-42
2023/12/27 12:43:15;;;;;;;11.47;2.30;;;10.10;99.90;;;;;;5035700;28;20208;-42
2023/12/27 12:45:44;;;;;;;8.10;1.73;;;10.10;99.90;;;;;;5035546;28;20655;-43
2023/12/27 12:48:11;;;;;;;8.63;2.23;;;10.10;99.90;;;;;;5035874;28;20677;-43
2023/12/27 12:50:41;;;;;;;8.93;2.23;;;10.20;99.90;;;;;;5036414;28;20704;-41
2023/12/27 12:53:17;;;;;;;9.27;2.43;;;10.10;99.90;;;;;;5036477;28;20593;-44
2023/12/27 12:55:46;;;;;;;6.60;2.13;;;10.10;99.90;;;;;;5036603;28;20169;-42
2023/12/27 12:58:12;;;;;;;5.83;2.43;;;10.10;99.90;;;;;;5036537;28;20657;-42
2023/12/27 13:00:38;;;;;;;8.20;1.97;;;10.10;99.90;;;;;;5036788;28;20203;-42
2023/12/27 13:03:06;;;;;;;9.93;1.67;;;10.10;99.90;;;;;;5035106;28;20552;-43
2023/12/27 13:05:34;;;;;;;8.20;1.93;;;10.10;99.90;;;;;;5036184;28;20204;-41
2023/12/27 13:08:06;;;;;;;7.40;2.30;;;10.10;99.90;;;;;;5036210;28;20184;-44
2023/12/27 13:10:34;;;;;;;6.53;1.93;;;10.10;99.90;;;;;;5036244;28;20203;-44
2023/12/27 13:13:00;;;;;;;4.33;1.50;;;10.00;99.90;;;;;;5036235;28;20232;-42
2023/12/27 13:15:29;;;;;;;5.47;2.00;;;10.00;99.90;;;;;;5036076;28;20247;-42
2023/12/27 13:17:55;;;;;;;9.20;2.33;;;10.00;99.90;;;;;;5034905;28;20200;-44
2023/12/27 13:20:23;;;;;;;9.43;1.90;;;9.90;99.90;;;;;;5035878;28;20203;-44
2023/12/27 13:22:52;;;;;;;6.57;2.20;;;9.90;99.90;;;;;;5035887;28;20174;-42
2023/12/27 13:25:18;;;;;;;6.10;1.60;;;9.90;99.90;;;;;;5036183;28;20220;-43
2023/12/27 13:27:44;;;;;;;9.13;1.87;;;9.90;99.90;;;;;;5036070;28;20173;-43
2023/12/27 13:30:14;;;;;;;14.40;1.93;;;9.90;99.90;;;;;;5035971;28;20270;-44
2023/12/27 13:32:39;;;;;;;7.37;2.10;;;9.80;99.90;;;;;;5017954;28;20335;-44
2023/12/27 13:35:07;;;;;;;7.10;1.80;;;9.80;99.90;;;;;;5035877;28;20202;-45
2023/12/27 13:37:35;;;;;;;3.90;2.27;;;9.80;99.90;;;;;;5034378;28;20186;-44
2023/12/27 13:40:03;;;;;;;5.53;1.90;;;9.70;99.90;;;;;;5035339;28;20676;-43
2023/12/27 13:42:41;;;;;;;6.47;1.50;;;9.70;99.90;;;;;;5036279;28;20365;-43
2023/12/27 13:45:07;;;;;;;8.87;1.90;;;9.70;99.90;;;;;;5035579;28;20165;-44
2023/12/27 13:51:02;;;;;;;8.00;1.60;;;9.60;99.90;;;;;;5035252;28;20340;-43